Terminal Aerodrome Forecast
Issued by NWS

Home | Current Version | Previous Version | Graphics & Text | Print | Product List | Glossary On
Versions: 1 2 3 4 5 6 7 8 9 10 11 12 13 14 15 16 17 18 19 20 21 22 23 24 25 26 27
000
FTUS43 KICT 221705 AAA
TAFCNU
TAF AMD
KCNU 221705Z 2217/2312 20008KT 4SM -DZ BR VCSH OVC008
      TEMPO 2217/2219 2SM -RA BR OVC004
     FM221900 21010KT 5SM BR VCSH SCT008 OVC015
     FM222100 28015KT P6SM VCSH OVC020
     FM230100 27009KT P6SM FEW030 SCT120=

USA.gov is the U.S. government's official web portal to all federal, state and local government web resources and services.